Time;durP1;ratioP1;P1;durP2;ratioP2;P2;SDS_P1;SDS_P2;PMS_P1;PMS_P2;Temp;Humidity;BMP_temperature;BMP_pressure;BME280_temperature;BME280_humidity;BME280_pressure;Samples;Min_cycle;Max_cycle;Signal;HPM_P1;HPM_P2
2022/11/09 00:05:07;;;;;;;7.30;4.30;;;;;;;7.09;100.00;97381.16;18421676;32;20111;-63
2022/11/09 00:15:11;;;;;;;13.57;7.03;;;;;;;7.30;100.00;97384.81;18421144;32;20136;-63
2022/11/09 00:25:13;;;;;;;13.20;7.63;;;;;;;7.46;100.00;97383.88;18421086;32;20119;-62
2022/11/09 00:35:16;;;;;;;17.03;9.17;;;;;;;7.61;100.00;97407.41;18530642;32;20103;-63
2022/11/09 00:45:19;;;;;;;12.40;8.13;;;;;;;7.76;100.00;97422.88;18559170;32;20079;-62
2022/11/09 00:55:22;;;;;;;10.70;7.27;;;;;;;7.90;100.00;97419.75;18544236;32;20044;-62
2022/11/09 01:05:25;;;;;;;15.00;9.37;;;;;;;8.03;100.00;97411.22;18570725;32;20056;-63
2022/11/09 01:15:27;;;;;;;13.10;7.23;;;;;;;8.19;100.00;97422.06;18563310;32;20066;-62
2022/11/09 01:25:30;;;;;;;7.17;4.90;;;;;;;8.24;100.00;97457.94;18569591;32;20143;-63
2022/11/09 01:35:34;;;;;;;6.00;4.07;;;;;;;8.32;100.00;97462.03;18568736;32;20100;-62
2022/11/09 01:45:36;;;;;;;6.87;4.27;;;;;;;8.41;100.00;97460.44;18553957;32;20492;-63
2022/11/09 01:55:39;;;;;;;5.47;3.60;;;;;;;8.50;100.00;97462.66;18567390;32;20106;-62
2022/11/09 02:05:43;;;;;;;4.10;2.70;;;;;;;8.57;100.00;97460.56;18566450;32;20053;-62
2022/11/09 02:15:46;;;;;;;4.03;3.27;;;;;;;8.63;100.00;97464.91;18546649;32;20048;-62
2022/11/09 02:26:08;;;;;;;5.60;3.77;;;;;;;8.68;100.00;97446.06;18426654;32;20459;-62
2022/11/09 02:36:10;;;;;;;5.23;4.00;;;;;;;8.73;100.00;97464.97;18426235;32;20098;-63
2022/11/09 02:46:20;;;;;;;5.97;3.93;;;;;;;8.77;100.00;97501.09;18412685;32;20110;-63
2022/11/09 02:56:23;;;;;;;5.10;4.00;;;;;;;8.78;100.00;97494.66;18450878;32;20048;-62
2022/11/09 03:06:33;;;;;;;5.40;3.33;;;;;;;8.80;100.00;97495.19;18424264;32;20114;-63
2022/11/09 03:16:37;;;;;;;5.13;3.10;;;;;;;8.84;100.00;97490.09;18410757;32;20125;-63
2022/11/09 03:26:40;;;;;;;7.47;3.43;;;;;;;8.87;100.00;97499.53;18231528;32;20070;-63
2022/11/09 03:36:42;;;;;;;5.30;2.87;;;;;;;8.88;100.00;97495.75;18239670;32;20485;-62
2022/11/09 03:46:45;;;;;;;8.23;4.23;;;;;;;8.88;100.00;97474.16;18358334;32;20054;-62
2022/11/09 03:56:48;;;;;;;4.23;3.67;;;;;;;8.90;100.00;97496.31;18386993;32;20376;-62
2022/11/09 04:06:50;;;;;;;5.73;3.80;;;;;;;8.90;100.00;97488.22;18560491;32;20052;-62
2022/11/09 04:16:53;;;;;;;4.00;2.73;;;;;;;8.91;100.00;97485.25;18546075;32;20357;-62
2022/11/09 04:26:55;;;;;;;3.90;3.37;;;;;;;8.93;100.00;97482.28;18559912;32;20061;-62
2022/11/09 04:36:58;;;;;;;5.53;3.80;;;;;;;8.93;100.00;97483.09;18555199;32;20489;-62
2022/11/09 04:47:00;;;;;;;5.03;3.60;;;;;;;8.94;100.00;97467.75;18571751;32;20078;-62
2022/11/09 04:57:02;;;;;;;3.63;3.10;;;;;;;8.98;100.00;97458.84;18564189;32;20099;-62
2022/11/09 05:07:05;;;;;;;4.37;3.63;;;;;;;8.95;100.00;97456.69;18570689;32;20421;-62
2022/11/09 05:17:07;;;;;;;7.47;4.07;;;;;;;8.98;100.00;97460.75;18570114;32;20064;-62
2022/11/09 05:27:10;;;;;;;5.70;3.70;;;;;;;8.95;100.00;97454.00;18555421;32;20052;-62
2022/11/09 05:37:13;;;;;;;5.10;3.40;;;;;;;8.95;100.00;97470.16;18568793;32;20109;-62
2022/11/09 05:47:17;;;;;;;3.37;2.63;;;;;;;9.00;100.00;97461.28;18549705;32;20406;-62
2022/11/09 05:57:20;;;;;;;4.57;3.20;;;;;;;9.03;100.00;97486.91;18565462;32;20052;-63
2022/11/09 06:07:22;;;;;;;4.23;3.37;;;;;;;9.09;100.00;97497.44;18552991;32;20072;-62
2022/11/09 06:17:25;;;;;;;4.13;2.73;;;;;;;9.16;100.00;97510.69;18552406;32;20079;-62
2022/11/09 06:27:28;;;;;;;3.33;2.53;;;;;;;9.20;100.00;97538.75;18551842;32;20044;-62
2022/11/09 06:37:30;;;;;;;3.90;2.70;;;;;;;9.24;100.00;97560.63;18564917;32;20152;-62
2022/11/09 06:47:33;;;;;;;3.73;2.90;;;;;;;9.29;100.00;97577.66;18550326;32;20048;-62
2022/11/09 06:57:36;;;;;;;4.20;2.80;;;;;;;9.34;100.00;97579.56;18562678;32;20049;-62
2022/11/09 07:07:40;;;;;;;3.90;2.90;;;;;;;9.39;100.00;97582.28;18549117;32;20100;-62
2022/11/09 07:17:43;;;;;;;3.13;2.73;;;;;;;9.46;100.00;97585.53;18548607;32;20117;-62
2022/11/09 07:27:47;;;;;;;3.40;3.00;;;;;;;9.54;100.00;97588.78;18562042;32;20139;-62
2022/11/09 07:37:53;;;;;;;4.73;3.40;;;;;;;9.57;100.00;97583.69;18540403;32;20095;-62
2022/11/09 07:47:59;;;;;;;4.25;2.78;;;;;;;9.69;100.00;97588.03;18409734;32;20069;-63
2022/11/09 07:58:09;;;;;;;4.17;2.70;;;;;;;9.74;100.00;97594.25;18421702;32;20136;-62
2022/11/09 08:08:14;;;;;;;5.28;3.40;;;;;;;9.79;100.00;97596.97;18429855;32;20128;-62
2022/11/09 08:18:20;;;;;;;6.37;4.07;;;;;;;9.96;100.00;97596.75;18502658;32;20075;-62
2022/11/09 08:28:25;;;;;;;6.93;3.53;;;;;;;10.19;100.00;97589.19;18516258;32;20429;-62
2022/11/09 08:38:32;;;;;;;4.87;3.25;;;;;;;10.50;100.00;97603.53;18515812;32;20056;-62
2022/11/09 08:48:41;;;;;;;5.50;3.97;;;;;;;10.95;100.00;97600.25;18514677;32;20361;-62
2022/11/09 08:58:49;;;;;;;3.50;2.95;;;;;;;11.33;100.00;97603.38;18539004;32;20115;-63
2022/11/09 09:09:05;;;;;;;4.95;3.80;;;;;;;11.52;100.00;97615.22;18580261;32;20385;-62
2022/11/09 09:20:03;;;;;;;3.10;2.63;;;;;;;11.66;100.00;97631.69;18561431;32;20444;-62
2022/11/09 09:30:34;;;;;;;6.00;3.12;;;;;;;11.70;100.00;97638.16;18569400;32;20079;-62
2022/11/09 09:41:08;;;;;;;5.97;4.12;;;;;;;11.73;100.00;97642.22;18568275;32;20452;-62
2022/11/09 09:51:37;;;;;;;5.87;3.70;;;;;;;11.76;100.00;97657.91;18542792;32;20044;-63
2022/11/09 10:01:45;;;;;;;4.43;2.83;;;;;;;11.78;100.00;97682.00;18552398;32;20049;-63
2022/11/09 10:12:03;;;;;;;6.80;4.80;;;;;;;11.84;100.00;97673.59;18566801;32;20052;-62
2022/11/09 10:22:21;;;;;;;8.27;4.85;;;;;;;11.97;100.00;97657.84;18559581;32;20060;-62
2022/11/09 10:32:30;;;;;;;7.25;3.78;;;;;;;12.35;100.00;97644.59;18565290;32;20449;-62
2022/11/09 10:42:35;;;;;;;3.67;3.17;;;;;;;12.57;100.00;97633.31;18564868;32;20071;-62
2022/11/09 10:52:39;;;;;;;3.43;2.30;;;;;;;12.70;100.00;97629.94;18348546;32;20111;-63
2022/11/09 11:02:50;;;;;;;4.03;2.72;;;;;;;12.88;100.00;97622.16;18349043;32;20227;-62
2022/11/09 11:13:04;;;;;;;5.43;2.42;;;;;;;12.96;100.00;97628.91;18360156;32;20413;-63
2022/11/09 11:23:24;;;;;;;2.58;1.67;;;;;;;12.98;100.00;97618.56;18473888;32;20071;-62
2022/11/09 11:33:31;;;;;;;6.07;2.42;;;;;;;13.05;100.00;97608.97;18495583;32;20396;-63
2022/11/09 11:44:01;;;;;;;2.83;1.77;;;;;;;12.98;100.00;97594.94;18494847;32;20045;-63
2022/11/09 11:54:20;;;;;;;2.97;1.77;;;;;;;12.85;100.00;97588.31;18495892;32;20070;-63
2022/11/09 12:05:23;;;;;;;2.92;2.17;;;;;;;12.78;100.00;97587.00;18557093;32;20045;-62
2022/11/09 12:16:19;;;;;;;3.60;2.40;;;;;;;12.90;100.00;97584.72;18559599;32;20073;-63
2022/11/09 12:26:49;;;;;;;3.47;2.70;;;;;;;12.90;100.00;97584.72;18559808;32;20049;-62
2022/11/09 12:37:20;;;;;;;5.53;3.30;;;;;;;12.90;100.00;97587.44;18559432;32;20083;-62
2022/11/09 12:47:39;;;;;;;5.72;2.90;;;;;;;12.87;100.00;97588.81;18559269;32;20104;-62
2022/11/09 12:57:52;;;;;;;5.03;2.45;;;;;;;12.86;100.00;97595.31;18552242;32;20093;-62
2022/11/09 13:08:36;;;;;;;4.20;2.53;;;;;;;12.83;100.00;97595.09;18557935;32;20067;-62
2022/11/09 13:18:42;;;;;;;3.75;2.60;;;;;;;12.72;100.00;97591.69;18570422;32;20053;-62
2022/11/09 13:29:16;;;;;;;2.75;2.37;;;;;;;12.75;100.00;97591.09;18569449;32;20044;-62
2022/11/09 13:39:38;;;;;;;4.57;2.67;;;;;;;12.75;100.00;97601.94;18568740;32;20440;-62
2022/11/09 13:50:00;;;;;;;4.18;3.12;;;;;;;12.61;100.00;97609.16;18568333;32;20398;-62
2022/11/09 14:00:17;;;;;;;4.07;3.05;;;;;;;12.45;100.00;97606.53;18567054;32;20052;-62
2022/11/09 14:11:10;;;;;;;5.90;3.80;;;;;;;12.40;100.00;97617.44;18566502;32;20101;-62
2022/11/09 14:21:31;;;;;;;5.03;3.35;;;;;;;12.25;100.00;97631.94;18566469;32;20053;-62
2022/11/09 14:31:44;;;;;;;3.60;3.10;;;;;;;12.05;100.00;97657.25;18551335;32;20068;-63
2022/11/09 14:41:48;;;;;;;5.95;3.90;;;;;;;11.96;100.00;97672.47;18550829;32;20071;-62
2022/11/09 14:51:52;;;;;;;5.40;3.80;;;;;;;11.87;100.00;97705.53;18549721;32;20057;-62
2022/11/09 15:02:08;;;;;;;3.80;3.10;;;;;;;11.80;100.00;97715.88;18549772;32;20049;-62
2022/11/09 15:12:16;;;;;;;3.70;2.80;;;;;;;11.73;100.00;97726.19;18563348;32;20048;-62
2022/11/09 15:22:36;;;;;;;3.53;2.70;;;;;;;11.65;100.00;97741.09;18562134;32;20104;-62
2022/11/09 15:32:40;;;;;;;2.85;2.30;;;;;;;11.56;100.00;97753.56;18422966;32;20161;-62
2022/11/09 15:42:48;;;;;;;5.10;3.28;;;;;;;11.47;100.00;97757.91;18422584;32;20125;-62
2022/11/09 15:52:54;;;;;;;4.37;3.03;;;;;;;11.36;100.00;97757.16;18422189;32;20160;-62
2022/11/09 16:02:57;;;;;;;3.77;3.00;;;;;;;11.28;100.00;97765.81;18444175;32;20061;-63
2022/11/09 16:13:01;;;;;;;3.62;3.05;;;;;;;11.17;100.00;97770.44;18546585;32;20048;-63
2022/11/09 16:23:04;;;;;;;3.55;2.75;;;;;;;11.10;100.00;97792.34;18560089;32;20195;-63
2022/11/09 16:33:07;;;;;;;4.55;2.55;;;;;;;11.04;100.00;97796.13;18555460;32;20056;-62
2022/11/09 16:43:10;;;;;;;3.42;2.58;;;;;;;11.00;100.00;97814.81;18558396;32;20461;-63
2022/11/09 16:53:13;;;;;;;3.15;2.20;;;;;;;10.98;100.00;97824.25;18557382;32;20060;-62
2022/11/09 17:03:16;;;;;;;2.83;2.30;;;;;;;10.96;100.00;97829.13;18504652;32;20064;-62
2022/11/09 17:13:20;;;;;;;3.50;2.35;;;;;;;10.92;100.00;97844.25;18491313;32;20083;-63
2022/11/09 17:23:23;;;;;;;3.25;2.22;;;;;;;10.87;100.00;97852.34;18504311;32;20112;-62
2022/11/09 17:33:27;;;;;;;3.50;2.60;;;;;;;10.84;100.00;97867.25;18503195;32;20092;-63
2022/11/09 17:43:35;;;;;;;3.33;2.40;;;;;;;10.81;100.00;97874.00;18501552;32;20072;-63
2022/11/09 17:53:39;;;;;;;5.15;2.75;;;;;;;10.77;100.00;97870.22;18502468;32;20057;-62
2022/11/09 18:03:42;;;;;;;3.12;2.20;;;;;;;10.74;100.00;97878.03;18558765;32;20060;-63
2022/11/09 18:13:45;;;;;;;3.00;1.40;;;;;;;10.66;100.00;97887.47;18552727;32;20083;-62
2022/11/09 18:23:48;;;;;;;2.72;1.50;;;;;;;10.54;100.00;97897.69;18552334;32;20108;-62
2022/11/09 18:33:52;;;;;;;2.53;1.90;;;;;;;10.44;100.00;97904.72;18564072;32;20082;-63
2022/11/09 18:43:57;;;;;;;3.50;1.20;;;;;;;10.41;100.00;97918.72;18560406;32;20069;-62
2022/11/09 18:54:00;;;;;;;2.10;1.35;;;;;;;10.35;100.00;97917.09;18564420;32;20090;-62
2022/11/09 19:04:04;;;;;;;2.10;1.70;;;;;;;10.33;100.00;97925.44;18563641;32;20076;-62
2022/11/09 19:14:09;;;;;;;4.03;2.47;;;;;;;10.30;100.00;97941.34;18563015;32;20429;-63
2022/11/09 19:24:13;;;;;;;2.58;1.75;;;;;;;10.27;100.00;97945.38;18535854;32;20041;-63
2022/11/09 19:34:20;;;;;;;3.22;1.48;;;;;;;10.27;100.00;97931.88;18528286;32;20061;-63
2022/11/09 19:44:23;;;;;;;2.53;1.60;;;;;;;10.21;100.00;97961.81;18561775;32;20382;-62
2022/11/09 19:54:26;;;;;;;1.97;1.77;;;;;;;10.12;100.00;97975.81;18561267;32;20075;-62
2022/11/09 20:04:29;;;;;;;4.35;2.12;;;;;;;10.12;100.00;97999.34;18494243;32;20049;-62
2022/11/09 20:14:32;;;;;;;2.90;2.05;;;;;;;10.10;100.00;98007.69;18494251;32;20425;-63
2022/11/09 20:24:35;;;;;;;2.27;2.00;;;;;;;10.11;100.00;97997.69;18495096;32;20052;-63
2022/11/09 20:34:38;;;;;;;3.05;2.35;;;;;;;10.10;100.00;98013.09;18494714;32;20373;-63
2022/11/09 20:44:41;;;;;;;3.50;2.60;;;;;;;10.10;100.00;98031.19;18494570;32;20049;-63
2022/11/09 20:54:44;;;;;;;3.58;2.65;;;;;;;10.08;100.00;98042.25;18494208;32;20511;-63
2022/11/09 21:04:47;;;;;;;5.00;3.00;;;;;;;10.06;100.00;98052.53;18492743;32;20053;-63
2022/11/09 21:14:50;;;;;;;3.78;2.55;;;;;;;10.06;100.00;98054.38;18422154;32;20073;-63
2022/11/09 21:35:14;;;;;;;2.87;1.90;;;;;;;10.01;100.00;98076.78;18430437;32;20176;-65
2022/11/09 21:45:17;;;;;;;4.07;2.83;;;;;;;10.00;100.00;98088.66;18429825;32;20058;-64
2022/11/09 21:55:19;;;;;;;4.82;2.95;;;;;;;10.05;100.00;98104.91;18505197;32;20053;-64
2022/11/09 22:05:22;;;;;;;2.00;0.77;;;;;;;10.10;100.00;98104.97;18568098;32;20052;-64
2022/11/09 22:25:46;;;;;;;0.70;0.22;;;;;;;10.21;100.00;98126.66;18566168;32;20045;-64
2022/11/09 22:35:56;;;;;;;2.25;0.20;;;;;;;10.23;100.00;98138.06;18565688;32;20053;-64
2022/11/09 22:46:06;;;;;;;0.57;0.30;;;;;;;10.26;100.00;98140.25;18565162;32;20044;-64
2022/11/09 22:56:09;;;;;;;0.40;0.22;;;;;;;10.28;100.00;98147.03;18564203;32;20072;-64
2022/11/09 23:06:15;;;;;;;0.40;0.20;;;;;;;10.33;100.00;98160.59;18549868;32;20045;-64
2022/11/09 23:16:18;;;;;;;0.32;0.22;;;;;;;10.35;100.00;98176.59;18563202;32;20053;-64
2022/11/09 23:26:22;;;;;;;0.20;0.13;;;;;;;10.26;100.00;98178.06;18562679;32;20083;-64
2022/11/09 23:36:25;;;;;;;0.50;0.20;;;;;;;10.23;100.00;98201.03;18547199;32;20052;-64
2022/11/09 23:46:28;;;;;;;0.30;0.20;;;;;;;10.22;100.00;98201.28;18547052;32;20076;-64
2022/11/09 23:56:30;;;;;;;0.47;0.30;;;;;;;10.20;100.00;98204.25;18546469;32;20111;-64
